Terminal Aerodrome Forecast
Issued by NWS

Home | Current Version | Previous Version | Text Only | Print | Product List | Glossary On
Versions: 1 2 3 4 5 6 7 8 9 10 11 12 13 14 15 16 17 18 19 20 21 22 23 24 25 26 27 28 29 30 31 32 33 34
000
FTUS45 KTWC 261134
TAFOLS
TAF
KOLS 261134Z 2612/2712 VRB03KT P6SM SCT250
     FM261800 18008KT P6SM SCT250
     FM262000 22011G18KT P6SM SCT250
     FM270200 21007KT P6SM BKN250
     FM270500 VRB03KT P6SM BKN250=

USA.gov is the U.S. government's official web portal to all federal, state and local government web resources and services.